Stove Prairie

Current Conditions

Time12/01/2020 08:45 AM MST
Location40.619167,-105.356944
Elevation7,349 FT
Air Temp28°F
Surface Temp29°F
Dew Point Temp9°F
PrecipitationNone
Relative Humidity44%
Visibility6,562 FT
Pressure774 MB

Click a photo to enlarge.

318°6 mph
Wind from @ 6 mph

Past 24 Hours

All Data

Previous 24h observations for Stove Prairie
Time Air Temp
(°F)
Surface
(°F)
Dew Point
(°F)
Precip. Relative
Humidity
Wind Direction Wind Speed (mph) Visibility (ft) Pressure
(mb)
08:45 AM28299None44NW66,562774
08:30 AM28289None45NNW116,562774
08:15 AM282810None47NNW116,562774
08:00 AM282812None51NNW106,562774
07:45 AM272712None53NNW96,562774
07:30 AM282712None52NNW96,562774
07:15 AM282613None53NNW106,562774
07:00 AM292711None47NNW106,562774
06:45 AM30279None42NW96,562774
06:30 AM30279None40NW66,562774
06:15 AM31278None38NW86,562774
06:00 AM32277None36NW86,562774
05:45 AM32286None33NW46,562773
05:30 AM32276None32N76,562773
05:15 AM33275None31NW36,562773
05:00 AM33274None29N56,562773
04:45 AM34284None28NNE86,562773
04:30 AM34284None28N86,562773
04:15 AM34283None27NNE126,562773
04:00 AM35273None26N46,562773
03:45 AM35283None25NNE66,562773
03:30 AM35283None25NNE96,562773
03:15 AM36282None24NW56,562773
03:00 AM37282None23NW46,562773
02:45 AM37292None23NW106,562773
02:30 AM37282None23NNW106,562773
02:15 AM38292None22NNW96,562773
02:00 AM37282None22NNW66,562773
01:45 AM38281None21NW156,562772
01:30 AM38271None20NW86,562772
01:15 AM39271None19NW96,562772
01:00 AM4126-0None17WSW36,562772
12:45 AM40270None18W56,562772
12:30 AM39271None20NNW96,562773
12:15 AM4026-0None18NW106,562773
12:00 AM3925-2None17NNW36,562773
11:45 PM3926-2None17NW56,562772
11:30 PM3925-2None17NW126,562772
11:15 PM4025-2None17NW76,562772
11:00 PM3924-3None16W36,562772
10:45 PM3924-3None16SW66,562773
10:30 PM4025-3None15S76,562773
10:15 PM3725-4None17ESE26,562773
10:00 PM3625-2None19E36,562772
09:45 PM3726-2None18SSE36,562773
09:30 PM3725-3None18NNE26,562773
09:15 PM3725-2None18NNE36,562773
09:00 PM3826-4None16SSW26,562773
08:45 PM3925-4None16SSW16,562773
08:30 PM4024-3None16NNW26,562774
08:15 PM3924-3None17N66,562774
08:00 PM3924-3None17SW36,562774
07:45 PM4025-2None16SSW36,562775
07:30 PM3825-2None18N36,562774
07:15 PM4025-2None17N76,562774
07:00 PM4026-3None15NNW76,562775
06:45 PM4026-5None15NW46,562775
06:30 PM3729-10None12NW46,562775
06:15 PM3427-7None16W36,562775
06:00 PM3627-9None14NNE26,562775
05:45 PM3726-8None14W46,562775
05:30 PM3827-6None14SE46,562775
05:15 PM3727-6None15NNW16,562775
05:00 PM4127-6None13W36,562775
04:45 PM4128-8None13E36,562775
04:30 PM4228-10None10SSE26,562775
04:15 PM4629-13None8WSW36,562775
04:00 PM4729-12None8N06,562775
03:45 PM4730-11None8WSW26,562775
03:30 PM4830-12None8WNW36,562775
03:15 PM4832-10None9WNW26,562775
03:00 PM4833-8None9SSW36,562776
02:45 PM4936-7None9WSW66,562776
02:30 PM4939-9None8WNW46,562776
02:15 PM5043-9None8W46,562776
02:00 PM5046-9None7SSW26,562776
01:45 PM5046-8None8SW26,562776
01:30 PM5147-10None8SW26,562776
01:15 PM5154-7None8E36,562776
01:00 PM5158-9None8NNE26,562776
12:45 PM5158-9None8NE46,562776
12:30 PM5156-9None8E36,562777
12:15 PM5054-8None8WNW36,562777
12:00 PM5052-7None8N66,562777
11:45 AM5051-7None9NNW46,562777
11:30 AM4949-9None9NNW36,562778
11:15 AM4947-9None9NNW56,562778
11:00 AM4946-9None9N26,562778
10:45 AM4844-8None9NNW36,562779
10:30 AM4842-9None9NNW56,562779
10:15 AM4840-11None8N66,562779
10:00 AM4838-10None8NW56,562779
09:45 AM4735-11None9NW66,562779
09:30 AM4633-12None8NW96,562779
09:15 AM4629-11None8NW86,562779
09:00 AM4626-11None9NW96,562779

Red Feather Lakes

Current Conditions

Time12/01/2020 08:45 AM MST
Location40.790278,-105.574167
Elevation8,238 FT
Air Temp22°F
Surface Temp24°F
Dew Point Temp8°F
PrecipitationNone
Relative Humidity53%
Visibility6,562 FT
Pressure749 MB

Click a photo to enlarge.

317°9 mph
Wind from @ 9 mph

Past 24 Hours

All Data

Previous 24h observations for Red Feather Lakes
Time Air Temp
(°F)
Surface
(°F)
Dew Point
(°F)
Precip. Relative
Humidity
Wind Direction Wind Speed (mph) Visibility (ft) Pressure
(mb)
08:45 AM22248None53NW96,562749
08:30 AM22249None57WNW76,562749
08:15 AM22228None56WNW116,562749
08:00 AM22219None57WNW76,562749
07:45 AM212110None60WNW86,562748
07:30 AM212010None61WNW76,562748
07:15 AM212011None64WNW76,562748
07:00 AM222212None67NNW56,562748
06:45 AM222312Light Snow67NW76,562748
06:30 AM222412Light Snow63WNW136,562748
06:15 AM222414Light Snow70WNW86,562748
06:00 AM222313Light Snow68WNW106,562748
05:45 AM242411Light Snow59NW116,562748
05:30 AM25239Light Snow48WNW156,562748
05:15 AM27235None38NW136,562747
05:00 AM27224None36NNW106,562747
04:45 AM28224None35NNE116,562747
04:30 AM29224None34W116,562747
04:15 AM28213None34W86,562747
04:00 AM28223None33W116,562747
03:45 AM29222None31WNW96,562747
03:30 AM30232None30WNW46,562747
03:15 AM30232None30WNW56,562747
03:00 AM30232None29WSW76,562747
02:45 AM30232None29SW86,562747
02:30 AM31242None28WSW76,562747
02:15 AM31242None28W76,562747
02:00 AM31241None28WNW116,562747
01:45 AM32241None27WSW96,562748
01:30 AM32241None26WNW146,562748
01:15 AM32241None26W156,562747
01:00 AM3224-0None25WSW86,562747
12:45 AM32241None25W146,562747
12:30 AM33240None24WSW116,562747
12:15 AM33240None25NNE96,562747
12:00 AM32240None25ENE66,562747
11:45 PM3324-0None24ENE76,562747
11:30 PM3225-0None24NNW166,562746
11:15 PM3323-1None23WSW26,562746
11:00 PM3324-0None23W176,562746
10:45 PM3324-1None23SSW196,562746
10:30 PM3324-0None24SW246,562746
10:15 PM32230None25WSW236,562746
10:00 PM32230None25WSW176,562746
09:45 PM32241None25SW226,562746
09:30 PM33241None26WSW266,562747
09:15 PM33241None26W146,562747
09:00 PM33251None25W136,562747
08:45 PM33261None25S56,562747
08:30 PM32241None26SSE106,562747
08:15 PM3325-1None23S196,562747
08:00 PM3224-0None24SE166,562748
07:45 PM3325-1None23E56,562748
07:30 PM3425-1None22NW66,562749
07:15 PM3426-1None22W146,562749
07:00 PM3527-3None19W66,562749
06:45 PM3528-4None19SE46,562749
06:30 PM3428-2None20SSE36,562749
06:15 PM3628-4None18SW116,562749
06:00 PM3628-7None15S76,562749
05:45 PM3629-7None15SSW56,562749
05:30 PM3728-7None15S116,562749
05:15 PM3729-8None15SSE106,562749
05:00 PM3629-6None16SW96,562749
04:45 PM3730-7None15SW136,562749
04:30 PM3732-7None14SSW96,562749
04:15 PM3833-10None12WNW76,562749
04:00 PM3936-8None13W156,562749
03:45 PM4038-8None12W106,562750
03:30 PM4040-9None12WNW156,562750
03:15 PM4242-9None11WSW126,562750
03:00 PM4144-9None11SW156,562750
02:45 PM4246-6None13WSW156,562750
02:30 PM4247-7None12W106,562750
02:15 PM4348-8None11W176,562750
02:00 PM4448-10None10SW136,562750
01:45 PM4449-10None10SW136,562750
01:30 PM4449-9None10SW176,562750
01:15 PM4448-9None10SW136,562751
01:00 PM4449-9None10SW136,562751
12:45 PM4350-8None11WSW156,562751
12:30 PM4250-8None12WSW166,562751
12:15 PM4249-7None12WSW166,562752
12:00 PM4148-7None12WSW216,562752
11:45 AM4147-7None12WSW186,562752
11:30 AM4146-7None12WSW186,562752
11:15 AM4144-8None12WSW206,562753
11:00 AM4142-9None11WSW166,562753
10:45 AM4140-9None12WSW126,562753
10:30 AM4038-8None12WSW186,562753
10:15 AM3935-10None11SW156,562753
10:00 AM3933-10None12WSW166,562754
09:45 AM3830-11None12WSW166,562754
09:30 AM3728-11None12WSW186,562754
09:15 AM3624-12None12WSW196,562754
09:00 AM3521-12None12SW216,562754

Pinewood Reservoir

Current Conditions

Time12/01/2020 08:30 AM MST
Location40.3647,-105.2867
Elevation6,580 FT
Air Temp33°F
Surface Temp35°F
Dew Point Temp9°F
PrecipitationNone
Relative Humidity36%
Visibility6,562 FT
Pressure791 MB
Level of Grip82.0
State of Surface4.0

Click a photo to enlarge.

291°3 mph
Wind from @ 3 mph

Past 24 Hours

All Data

Previous 24h observations for Pinewood Reservoir
Time Air Temp
(°F)
Surface
(°F)
Dew Point
(°F)
Precip. Relative
Humidity
Wind Direction Wind Speed (mph) Visibility (ft) Pressure
(mb)
Level of GripState Surface
08:30 AM33359None36WNW36,562791824
08:15 AM33349None36W56,562790824
08:00 AM33349None36W66,562790824
07:45 AM33338None35W116,562790824
07:30 AM34338None33WSW186,562789824
07:15 AM34338None32WSW186,562789824
07:00 AM34337None31WSW196,562789824
06:45 AM35345None28WSW266,562789824
06:30 AM36345None27WSW186,562789824
06:15 AM36345None26W146,562789824
06:00 AM37344None26WSW166,562789824
05:45 AM37344None25W126,562789824
05:30 AM37344None25WSW106,562789824
05:15 AM37344None24W176,562788824
05:00 AM38343None23W66,562788824
04:45 AM38343None23SW116,562788824
04:30 AM38343None23WSW116,562788824
04:15 AM38353None22WNW106,562788824
04:00 AM38353None22W96,562789824
03:45 AM39353None22WSW146,562789824
03:30 AM39353None22WSW196,562788824
03:15 AM39363None21WSW276,562788824
03:00 AM40363None21W206,562789824
02:45 AM40363None21WSW196,562788824
02:30 AM40363None21WSW316,562788824
02:15 AM40363None21WSW286,562788824
02:00 AM40363None20WSW326,562787824
01:45 AM40362None20WSW326,562787824
01:30 AM40362None20WSW366,562787824
01:15 AM41362None20WSW346,562787824
01:00 AM40362None20WSW286,562788824
12:45 AM40362None20WSW336,562788824
12:30 AM43372None18WSW276,562788824
12:15 AM41362None19W226,562788824
12:00 AM41362None19WSW276,562788824
11:45 PM41362None19WSW246,562788824
11:30 PM42361None18WSW266,562788824
11:15 PM42351None18WSW246,562788824
11:00 PM42361None18WSW306,562788824
10:45 PM42361None18WSW306,562788824
10:30 PM41361None18WSW286,562788824
10:15 PM41362None18WSW246,562788824
10:00 PM41362None19WSW216,562788824
09:45 PM41362None19WSW226,562789824
09:30 PM42362None18WSW286,562789824
09:15 PM42362None18WSW386,562789824
09:00 PM42362None19WSW406,562789824
08:45 PM41353None20WSW316,562789824
08:30 PM41353None20WSW306,562789824
08:15 PM41342None20WSW246,562790824
08:00 PM42353None19WSW166,562790824
07:45 PM41353None20WSW296,562790824
07:30 PM41363None20WSW306,562790824
07:15 PM42372None19WSW326,562790824
07:00 PM42372None19WSW266,562790824
06:45 PM42372None19WSW286,562790824
06:30 PM42372None18WSW286,562791824
06:15 PM42361None18WSW186,562791824
06:00 PM42361None17WSW206,562791824
05:45 PM43371None17WSW256,562791824
05:30 PM43371None17WSW206,562791824
05:15 PM4438-1None15WSW156,562791824
05:00 PM4438-1None15WSW226,562791824
04:45 PM4540-1None14WSW266,562791824
04:30 PM4540-2None14WSW196,562791824
04:15 PM4542-2None14WSW176,562791824
04:00 PM4643-1None14WSW266,562791824
03:45 PM4745-1None13WSW236,562791824
03:30 PM4947-6None10W96,562791824
03:15 PM4949-3None11WSW176,562791824
03:00 PM4950-2None11WSW156,562791824
02:45 PM5052-2None11WSW206,562791824
02:30 PM5053-3None11WSW176,562792824
02:15 PM5055-3None11WSW236,562792824
02:00 PM5156-3None10WSW186,562792824
01:45 PM5157-2None11WSW176,562792824
01:30 PM5158-4None10SW226,562792824
01:15 PM5257-2None11WSW176,562792824
01:00 PM5157-4None10SW176,562792824
12:45 PM5157-3None11WSW176,562793824
12:30 PM5259-2None10WSW186,562793824
12:15 PM5259-3None10WSW156,562793824
12:00 PM5158-2None11WSW176,562793824
11:45 AM5158-3None10WSW156,562794824
11:30 AM5257-1None11WSW156,562794824
11:15 AM5155-1None11WSW136,562794824
11:00 AM5153-3None11WSW106,562795824
10:45 AM5152-3None10W106,562795824
10:30 AM5050-3None11W96,562795824
10:15 AM4948-1None13WSW166,562795824
10:00 AM4946-3None11WSW126,562795824
09:45 AM4944-3None11WSW126,562795824
09:30 AM4841-4None11WSW106,562795824
09:15 AM4739-3None12WSW136,562795824
09:00 AM4636-4None12SW156,562795824

Masonville

Current Conditions

Time12/01/2020 08:30 AM MST
Location40.4875,-105.2108
Elevation5,387 FT
Air Temp39°F
Surface Temp38°F
Dew Point Temp11°F
PrecipitationNone
Relative Humidity31%
Visibility6,562 FT
Pressure834 MB

Click a photo to enlarge.

304°8 mph
Wind from @ 8 mph

Past 24 Hours

All Data

Previous 24h observations for Masonville
Time Air Temp
(°F)
Surface
(°F)
Dew Point
(°F)
Precip. Relative
Humidity
Wind Direction Wind Speed (mph) Visibility (ft) Pressure
(mb)
08:30 AM393811None31NW86,562834
08:15 AM393811None32NW76,562833
08:00 AM383813None35NW66,562833
07:45 AM383713None35NW146,562833
07:30 AM393713None34NW76,562832
07:15 AM403712None31NW116,562832
07:00 AM403811None30NW106,562832
06:45 AM413811None29NW206,562832
06:30 AM413710None28NW116,562831
06:15 AM42389None26NW136,562831
06:01 AM42329None25NW180831
05:45 AM43378None24WNW146,562831
05:30 AM43378None23WNW206,562831
05:15 AM43378None23WNW56,562831
05:00 AM44377None21WNW46,562830
04:45 AM44376None21N46,562830
04:30 AM45376None20NW106,562830
04:15 AM45376None21WNW96,562830
04:00 AM44376None21NW46,562830
03:45 AM42367None23NW56,562831
03:30 AM39357None26WNW36,562831
03:15 AM38358None29NNE46,562831
03:00 AM40366None24NNW36,562831
02:45 AM37366None27NNE46,562831
02:30 AM39367None26WSW26,562831
02:15 AM39368None27NNE26,562831
02:00 AM39366None25NE36,562830
01:45 AM39347None26W56,562830
01:30 AM40356None25NNW26,562830
01:15 AM40356None24WNW66,562830
01:00 AM40355None24N76,562830
12:46 AM38356None26ENE26,562830
12:30 AM39364None23NE26,562830
12:15 AM37355None26E26,562831
12:00 AM36356None27SE16,562830
11:45 PM38355None24NE46,562830
11:30 PM43344None20NE36,562830
11:15 PM41354None21NNE76,562830
11:00 PM37356None27ENE46,562830
10:45 PM38366None26E26,562830
10:30 PM37365None26WNW46,562830
10:15 PM40374None22NNE36,562830
10:00 PM41375None22NNW66,562830
09:45 PM39356None24NNW26,562831
09:30 PM37364None25NW46,562831
09:15 PM38354None23ESE46,562831
09:00 PM38363None23N36,562831
08:45 PM36363None25SSE26,562831
08:30 PM38353None23SSW36,562831
08:15 PM37362None23ENE36,562832
08:00 PM39371None20NNW26,562832
07:45 PM40382None20NNW36,562832
07:30 PM41373None19W46,562832
07:15 PM44373None18NNW26,562832
07:00 PM46402None15WNW86,562832
06:45 PM42402None18NW86,562832
06:30 PM40404None22NW56,562833
06:15 PM39405None24NNW46,562832
06:00 PM40405None23NW46,562832
05:45 PM40406None24ENE26,562832
05:30 PM42425None21SSE16,562832
05:15 PM45434None18NNW16,562832
05:00 PM49444None15N06,562832
04:45 PM50462None14NNE36,562832
04:30 PM5248-2None11NW16,562832
04:15 PM53497None15SSW26,562832
04:00 PM54524None13SSE46,562833
03:45 PM56538None15WSW36,562833
03:30 PM58569None14SW36,562833
03:15 PM57584None11ESE26,562833
03:00 PM566010None16S26,562833
02:45 PM566111None16S46,562833
02:30 PM556211None17S36,562833
02:15 PM556311None17S56,562833
02:00 PM556410None17S66,562833
01:45 PM546510None17SSE76,562833
01:30 PM54659None16SSE86,562834
01:15 PM54658None15SSE76,562834
01:00 PM54659None16S76,562834
12:45 PM53656None15SSE66,562834
12:30 PM53644None13S56,562834
12:15 PM54641None11SE36,562835
12:00 PM5362-1None10N06,562835
11:45 AM5261-0None11S26,562835
11:30 AM5059-1None12W26,562836
11:15 AM5057-1None12N06,562836
11:00 AM48551None14N06,562836
10:45 AM46531None15SSW26,562837
10:30 AM45513None17SSE36,562837
10:15 AM43476None21SSE36,562837
10:00 AM43462None18SE26,562837
09:45 AM43434None19N06,562837
09:30 AM40404None21N06,562837
09:15 AM37373None24WNW26,562838
09:00 AM34353None26NNW16,562838

Page refreshes in :